Time;durP1;ratioP1;P1;durP2;ratioP2;P2;SDS_P1;SDS_P2;PMS_P1;PMS_P2;Temp;Humidity;BMP_temperature;BMP_pressure;BME280_temperature;BME280_humidity;BME280_pressure;Samples;Min_cycle;Max_cycle;Signal;HPM_P1;HPM_P2
2021/10/14 00:01:18;;;;;;;4.07;1.47;;;11.50;99.90;;;;;;4985490;28;20285;-86
2021/10/14 00:03:50;;;;;;;4.37;1.60;;;11.40;99.90;;;;;;4982836;28;20258;-87
2021/10/14 00:06:20;;;;;;;3.83;1.40;;;11.40;99.90;;;;;;4985580;28;20278;-87
2021/10/14 00:08:54;;;;;;;2.30;1.50;;;11.40;99.90;;;;;;4982291;28;20203;-87
2021/10/14 00:11:28;;;;;;;3.77;2.50;;;11.40;99.90;;;;;;4992796;28;20230;-87
2021/10/14 00:14:02;;;;;;;2.80;1.60;;;11.40;99.90;;;;;;4986101;28;20245;-87
2021/10/14 00:16:34;;;;;;;1.87;1.20;;;11.40;99.90;;;;;;4965739;28;20235;-87
2021/10/14 00:19:07;;;;;;;2.30;1.40;;;11.30;99.90;;;;;;4990241;28;20215;-88
2021/10/14 00:21:40;;;;;;;3.10;1.57;;;11.30;99.90;;;;;;4981032;28;20211;-87
2021/10/14 00:24:14;;;;;;;2.23;1.33;;;11.30;99.90;;;;;;4979987;28;20211;-87
2021/10/14 00:26:46;;;;;;;5.50;1.30;;;11.20;99.90;;;;;;4978615;28;20234;-86
2021/10/14 00:29:18;;;;;;;4.40;1.50;;;11.20;99.90;;;;;;4985636;28;20627;-86
2021/10/14 00:31:49;;;;;;;2.73;1.60;;;11.10;99.90;;;;;;4987108;28;20207;-86
2021/10/14 00:34:20;;;;;;;4.13;1.70;;;11.10;99.90;;;;;;4966561;28;20587;-86
2021/10/14 00:36:52;;;;;;;2.80;1.60;;;11.10;99.90;;;;;;4980290;28;20325;-86
2021/10/14 00:39:26;;;;;;;5.27;1.80;;;11.10;99.90;;;;;;4996243;28;20215;-86
2021/10/14 00:41:57;;;;;;;6.00;1.87;;;11.00;99.90;;;;;;4994511;28;20221;-86
2021/10/14 00:44:29;;;;;;;3.40;1.53;;;10.90;99.90;;;;;;5009946;23;20246;-86
2021/10/14 00:47:01;;;;;;;2.73;1.60;;;10.90;99.90;;;;;;5012088;28;20209;-87
2021/10/14 00:49:32;;;;;;;3.07;1.60;;;10.80;99.90;;;;;;4999531;28;20272;-86
2021/10/14 00:52:03;;;;;;;5.53;1.40;;;10.80;99.90;;;;;;4999527;28;20214;-87
2021/10/14 00:54:37;;;;;;;3.13;1.30;;;10.80;99.90;;;;;;5006693;28;20206;-87
2021/10/14 00:57:11;;;;;;;3.80;1.60;;;10.70;99.90;;;;;;5009867;28;20657;-86
2021/10/14 00:59:44;;;;;;;3.97;1.47;;;10.70;99.90;;;;;;5011373;28;20206;-86
2021/10/14 01:02:16;;;;;;;3.93;1.50;;;10.60;99.90;;;;;;5001140;28;20206;-88
2021/10/14 01:04:48;;;;;;;2.47;1.50;;;10.60;99.90;;;;;;5004249;28;20194;-88
2021/10/14 01:07:19;;;;;;;5.30;1.70;;;10.50;99.90;;;;;;4979778;28;20355;-89
2021/10/14 01:09:52;;;;;;;3.57;1.93;;;10.50;99.90;;;;;;4984793;28;20265;-90
2021/10/14 01:12:24;;;;;;;3.93;1.90;;;10.40;99.90;;;;;;4997442;28;20267;-88
2021/10/14 01:14:56;;;;;;;1.73;1.20;;;10.30;99.90;;;;;;5019774;28;20206;-89
2021/10/14 01:17:27;;;;;;;5.30;1.80;;;10.30;99.90;;;;;;5026466;28;20573;-87
2021/10/14 01:20:01;;;;;;;4.80;2.10;;;10.30;99.90;;;;;;5005302;28;20707;-88
2021/10/14 01:22:34;;;;;;;5.50;1.80;;;10.20;99.90;;;;;;5024646;28;20220;-86
2021/10/14 01:25:05;;;;;;;3.63;1.70;;;10.10;99.90;;;;;;5004197;28;20222;-87
2021/10/14 01:30:31;;;;;;;3.40;1.73;;;10.20;99.90;;;;;;5051813;23;20253;-87
2021/10/14 01:33:12;;;;;;;4.03;1.90;;;10.10;99.90;;;;;;5030307;28;20191;-86
2021/10/14 01:35:47;;;;;;;5.47;2.20;;;10.00;99.90;;;;;;5054633;28;20255;-87
2021/10/14 01:38:20;;;;;;;4.07;1.80;;;10.00;99.90;;;;;;5035033;28;20217;-87
2021/10/14 01:40:52;;;;;;;3.53;1.50;;;9.90;99.90;;;;;;5037404;28;20189;-86
2021/10/14 01:43:24;;;;;;;2.33;1.50;;;9.80;99.90;;;;;;5037200;28;20228;-86
2021/10/14 01:45:55;;;;;;;3.43;1.67;;;9.80;99.90;;;;;;5024361;28;20209;-87
2021/10/14 01:48:29;;;;;;;4.33;1.70;;;9.70;99.90;;;;;;5017459;28;20218;-87
2021/10/14 01:51:04;;;;;;;3.37;1.30;;;9.70;99.90;;;;;;5033762;28;20214;-87
2021/10/14 02:18:02;;;;;;;3.03;1.57;;;9.50;99.90;;;;;;5007481;28;20752;-87
2021/10/14 02:20:34;;;;;;;3.80;1.87;;;9.50;99.90;;;;;;5013321;28;20214;-88
2021/10/14 02:23:06;;;;;;;2.27;1.53;;;9.50;99.90;;;;;;5009971;28;20215;-87
2021/10/14 02:25:38;;;;;;;5.37;1.70;;;9.50;99.90;;;;;;4994966;28;20277;-88
2021/10/14 02:28:11;;;;;;;3.33;2.43;;;9.50;99.90;;;;;;5011070;28;20202;-88
2021/10/14 02:30:43;;;;;;;6.03;1.77;;;9.40;99.90;;;;;;5012368;28;20210;-87
2021/10/14 02:33:17;;;;;;;3.13;2.00;;;9.40;99.90;;;;;;5029768;28;20308;-87
2021/10/14 02:35:50;;;;;;;3.90;1.93;;;9.40;99.90;;;;;;5013011;28;20256;-87
2021/10/14 02:38:24;;;;;;;7.03;1.87;;;9.50;99.90;;;;;;5012734;28;20559;-87
2021/10/14 02:40:57;;;;;;;4.03;1.77;;;9.40;99.90;;;;;;5000335;28;20270;-87
2021/10/14 02:43:33;;;;;;;4.83;1.87;;;9.40;99.90;;;;;;5038003;23;20248;-86
2021/10/14 02:46:18;;;;;;;5.00;1.90;;;9.40;99.90;;;;;;5013441;28;20210;-88
2021/10/14 02:48:55;;;;;;;5.07;1.60;;;9.40;99.90;;;;;;5015013;28;20305;-86
2021/10/14 02:51:27;;;;;;;6.67;1.97;;;9.40;99.90;;;;;;5256600;23;20266;-86
2021/10/14 02:54:00;;;;;;;6.10;1.73;;;9.40;99.90;;;;;;5036189;28;20222;-87
2021/10/14 02:56:31;;;;;;;4.83;2.13;;;9.40;99.90;;;;;;5033201;28;20243;-87
2021/10/14 02:59:02;;;;;;;5.03;2.10;;;9.40;99.90;;;;;;5032975;28;20197;-88
2021/10/14 03:01:34;;;;;;;5.60;2.10;;;9.40;99.90;;;;;;5033177;28;20197;-88
2021/10/14 03:04:08;;;;;;;4.17;2.00;;;9.40;99.90;;;;;;5031062;28;20206;-88
2021/10/14 03:06:40;;;;;;;4.80;2.43;;;9.40;99.90;;;;;;5028741;28;20223;-88
2021/10/14 03:09:14;;;;;;;5.40;2.57;;;9.40;99.90;;;;;;5033601;28;20313;-88
2021/10/14 03:11:45;;;;;;;6.23;2.40;;;9.40;99.90;;;;;;5030398;28;20211;-88
2021/10/14 03:14:16;;;;;;;5.93;2.60;;;9.40;99.90;;;;;;5031162;28;20214;-88
2021/10/14 03:16:50;;;;;;;6.20;3.07;;;9.40;99.90;;;;;;5034316;28;20236;-88
2021/10/14 03:19:24;;;;;;;12.90;3.20;;;9.40;99.90;;;;;;5034197;28;20240;-88
2021/10/14 03:21:57;;;;;;;7.67;3.03;;;9.40;99.90;;;;;;5041702;28;20209;-88
2021/10/14 03:24:38;;;;;;;6.90;2.97;;;9.40;99.90;;;;;;5037150;28;20214;-88
2021/10/14 03:38:13;;;;;;;9.30;4.63;;;9.40;99.90;;;;;;5015824;28;20248;-86
2021/10/14 03:40:46;;;;;;;14.20;5.10;;;9.40;99.90;;;;;;5015241;28;20217;-87
2021/10/14 03:43:18;;;;;;;8.97;4.50;;;9.40;99.90;;;;;;4992632;28;20227;-88
2021/10/14 03:45:50;;;;;;;9.70;4.97;;;9.40;99.90;;;;;;5003828;28;20710;-87
2021/10/14 03:48:27;;;;;;;13.87;5.50;;;9.40;99.90;;;;;;5009684;28;20261;-87
2021/10/14 03:51:02;;;;;;;10.70;5.37;;;9.40;99.90;;;;;;5027353;28;20210;-87
2021/10/14 03:53:36;;;;;;;14.17;5.10;;;9.40;99.90;;;;;;5020106;28;20195;-89
2021/10/14 03:56:08;;;;;;;12.20;5.53;;;9.40;99.90;;;;;;5004517;28;20214;-88
2021/10/14 03:58:40;;;;;;;9.93;5.47;;;9.40;99.90;;;;;;4992348;28;20248;-88
2021/10/14 04:01:19;;;;;;;11.63;5.73;;;9.40;99.90;;;;;;5011434;28;20206;-88
2021/10/14 04:03:51;;;;;;;11.77;5.73;;;9.40;99.90;;;;;;5014424;28;20194;-88
2021/10/14 04:06:24;;;;;;;11.03;4.87;;;9.40;99.90;;;;;;5014910;28;20198;-88
2021/10/14 04:09:14;;;;;;;10.63;4.90;;;9.40;99.90;;;;;;5016562;28;20209;-88
2021/10/14 04:14:48;;;;;;;17.13;4.80;;;9.50;99.90;;;;;;5068786;23;20273;-87
2021/10/14 04:17:20;;;;;;;6.70;4.43;;;9.50;99.90;;;;;;5012221;28;20234;-88
2021/10/14 04:19:55;;;;;;;14.67;4.37;;;9.50;99.90;;;;;;5011818;28;20258;-88
2021/10/14 04:22:27;;;;;;;9.77;4.60;;;9.50;99.90;;;;;;5012924;28;20216;-88
2021/10/14 04:25:00;;;;;;;12.73;4.83;;;9.50;99.90;;;;;;5004467;28;20481;-88
2021/10/14 04:27:33;;;;;;;12.93;5.60;;;9.40;99.90;;;;;;4975121;28;20206;-87
2021/10/14 04:30:05;;;;;;;10.57;4.50;;;9.50;99.90;;;;;;4984025;28;20238;-87
2021/10/14 04:32:36;;;;;;;8.17;4.53;;;9.40;99.90;;;;;;4981758;28;20246;-88
2021/10/14 04:35:09;;;;;;;13.53;4.90;;;9.40;99.90;;;;;;4979881;28;20573;-88
2021/10/14 04:37:43;;;;;;;10.33;3.97;;;9.40;99.90;;;;;;4978938;28;20269;-87
2021/10/14 04:40:16;;;;;;;9.23;3.80;;;9.40;99.90;;;;;;4962263;28;20245;-87
2021/10/14 04:42:47;;;;;;;6.70;3.90;;;9.40;99.90;;;;;;4979765;28;20331;-87
2021/10/14 04:45:18;;;;;;;10.97;3.60;;;9.40;99.90;;;;;;4994759;28;20207;-87
2021/10/14 04:47:49;;;;;;;11.00;4.17;;;9.40;99.90;;;;;;5002729;28;20236;-87
2021/10/14 04:50:21;;;;;;;10.53;4.13;;;9.40;99.90;;;;;;4999133;28;20206;-88
2021/10/14 04:52:52;;;;;;;9.77;4.13;;;9.40;99.90;;;;;;4998468;28;20228;-88
2021/10/14 04:55:25;;;;;;;7.60;3.23;;;9.40;99.90;;;;;;4997272;28;20213;-88
2021/10/14 04:57:56;;;;;;;7.43;3.33;;;9.40;99.90;;;;;;4998910;28;20256;-88
2021/10/14 05:00:27;;;;;;;8.13;3.47;;;9.40;99.90;;;;;;5000304;28;20229;-89
2021/10/14 05:02:59;;;;;;;9.67;3.47;;;9.30;99.90;;;;;;5017711;28;20212;-89
2021/10/14 05:05:30;;;;;;;6.47;2.67;;;9.30;99.90;;;;;;5016339;28;20194;-88
2021/10/14 05:08:06;;;;;;;8.20;2.83;;;9.30;99.90;;;;;;5010598;28;20272;-88
2021/10/14 05:10:41;;;;;;;11.73;2.80;;;9.30;99.90;;;;;;5000311;28;20215;-88
2021/10/14 05:13:12;;;;;;;6.13;2.57;;;9.30;99.90;;;;;;5003280;28;20221;-87
2021/10/14 05:15:44;;;;;;;5.30;2.83;;;9.30;99.90;;;;;;5006731;28;20293;-87
2021/10/14 05:18:15;;;;;;;7.67;3.00;;;9.20;99.90;;;;;;5009239;28;20381;-87
2021/10/14 05:20:46;;;;;;;5.67;3.03;;;9.20;99.90;;;;;;5013539;28;20273;-88
2021/10/14 05:23:18;;;;;;;12.83;3.77;;;9.20;99.90;;;;;;5002573;28;20209;-88
2021/10/14 05:25:52;;;;;;;8.97;3.80;;;9.10;99.90;;;;;;5000174;28;20206;-87
2021/10/14 05:28:23;;;;;;;9.93;3.50;;;9.10;99.90;;;;;;4999258;28;20239;-87
2021/10/14 05:30:55;;;;;;;8.73;3.60;;;9.10;99.90;;;;;;4997298;28;20214;-85
2021/10/14 05:33:28;;;;;;;11.40;3.80;;;9.10;99.90;;;;;;4997140;28;20237;-86
2021/10/14 05:35:59;;;;;;;8.63;3.43;;;9.00;99.90;;;;;;4995952;28;20217;-86
2021/10/14 05:38:31;;;;;;;5.70;3.00;;;9.00;99.90;;;;;;4997104;28;20236;-85
2021/10/14 05:41:05;;;;;;;8.17;3.13;;;9.00;99.90;;;;;;4997033;28;20217;-86
2021/10/14 05:43:36;;;;;;;10.57;3.60;;;9.00;99.90;;;;;;4997204;28;20213;-87
2021/10/14 05:46:08;;;;;;;11.23;3.50;;;9.00;99.90;;;;;;4996580;28;20208;-87
2021/10/14 05:48:39;;;;;;;8.33;3.87;;;8.90;99.90;;;;;;4997122;28;20237;-88
2021/10/14 05:51:10;;;;;;;8.00;3.80;;;9.00;99.90;;;;;;4996661;28;20334;-87
2021/10/14 05:53:41;;;;;;;7.90;3.73;;;8.90;99.90;;;;;;4997188;28;20206;-87
2021/10/14 05:56:15;;;;;;;9.70;3.27;;;9.00;99.90;;;;;;4997328;28;20213;-87
2021/10/14 05:58:46;;;;;;;10.93;3.70;;;8.80;99.90;;;;;;4999608;28;20234;-88
2021/10/14 06:01:17;;;;;;;9.10;3.17;;;8.80;99.90;;;;;;5000785;28;20209;-88
2021/10/14 06:03:48;;;;;;;8.37;3.07;;;8.80;99.90;;;;;;5002374;28;20669;-88
2021/10/14 06:06:20;;;;;;;10.60;3.23;;;8.70;99.90;;;;;;5034665;23;20295;-88
2021/10/14 06:08:51;;;;;;;11.97;2.97;;;8.70;99.90;;;;;;5019671;28;20220;-86
2021/10/14 06:11:24;;;;;;;7.93;2.73;;;8.70;99.90;;;;;;5019843;28;20252;-88
2021/10/14 06:13:56;;;;;;;6.57;2.67;;;8.60;99.90;;;;;;5019847;28;20263;-88
2021/10/14 06:16:27;;;;;;;7.87;3.07;;;8.60;99.90;;;;;;5019223;28;20280;-88
2021/10/14 06:18:58;;;;;;;6.47;2.57;;;8.70;99.90;;;;;;5022319;28;20239;-88
2021/10/14 06:21:29;;;;;;;10.57;3.30;;;8.70;99.90;;;;;;5003843;28;20285;-88
2021/10/14 06:24:02;;;;;;;5.60;2.17;;;8.70;99.90;;;;;;5022670;28;20206;-88
2021/10/14 06:26:35;;;;;;;7.17;2.67;;;8.80;99.90;;;;;;5024755;28;20208;-88
2021/10/14 06:29:06;;;;;;;7.23;2.43;;;8.70;99.90;;;;;;5020116;28;20216;-88
2021/10/14 06:31:37;;;;;;;8.50;3.60;;;8.60;99.90;;;;;;5020108;28;20236;-88
2021/10/14 06:34:08;;;;;;;7.27;2.63;;;8.60;99.90;;;;;;5021444;28;20228;-88
2021/10/14 06:36:40;;;;;;;7.60;2.67;;;8.60;99.90;;;;;;4983672;28;20213;-88
2021/10/14 06:39:11;;;;;;;8.93;3.93;;;8.50;99.90;;;;;;5000263;28;20724;-87
2021/10/14 06:41:45;;;;;;;8.30;3.20;;;8.50;99.90;;;;;;5001273;28;20207;-88
2021/10/14 06:44:17;;;;;;;9.20;2.77;;;8.40;99.90;;;;;;5000072;28;20658;-87
2021/10/14 06:46:48;;;;;;;8.00;2.83;;;8.30;99.90;;;;;;5000819;28;20227;-88
2021/10/14 06:49:19;;;;;;;7.70;2.63;;;8.30;99.90;;;;;;5000535;28;20666;-88
2021/10/14 06:51:51;;;;;;;7.20;2.77;;;8.30;99.90;;;;;;5000166;28;20210;-88
2021/10/14 06:54:22;;;;;;;6.70;2.73;;;8.30;99.90;;;;;;4999199;28;20245;-88
2021/10/14 06:56:57;;;;;;;9.57;3.30;;;8.30;99.90;;;;;;4984519;28;20726;-88
2021/10/14 06:59:28;;;;;;;7.53;2.50;;;8.30;99.90;;;;;;5003096;28;20219;-88
2021/10/14 07:02:00;;;;;;;7.30;2.73;;;8.40;99.90;;;;;;5000706;28;20245;-88
2021/10/14 07:04:32;;;;;;;6.40;2.67;;;8.40;99.90;;;;;;4983821;28;20206;-89
2021/10/14 07:07:03;;;;;;;6.53;2.40;;;8.40;99.90;;;;;;5000837;28;20218;-89
2021/10/14 07:09:35;;;;;;;6.17;2.23;;;8.40;99.90;;;;;;5000376;28;20228;-89
2021/10/14 07:12:12;;;;;;;6.40;2.37;;;8.40;99.90;;;;;;5002926;28;20244;-89
2021/10/14 07:14:45;;;;;;;6.37;2.60;;;8.50;99.90;;;;;;5019519;28;20198;-87
2021/10/14 07:17:16;;;;;;;7.40;2.63;;;8.50;99.90;;;;;;5017078;28;20229;-88
2021/10/14 07:19:47;;;;;;;7.70;2.60;;;8.50;99.90;;;;;;5018705;28;20229;-89
2021/10/14 07:22:18;;;;;;;6.03;2.57;;;8.50;99.90;;;;;;5017890;28;20190;-87
2021/10/14 07:24:49;;;;;;;9.93;2.77;;;8.50;99.90;;;;;;5011459;28;20232;-91
2021/10/14 07:27:23;;;;;;;6.13;2.67;;;8.50;99.90;;;;;;5002842;28;20206;-87
2021/10/14 07:29:54;;;;;;;4.17;2.13;;;8.50;99.90;;;;;;4999389;28;20210;-88
2021/10/14 07:32:25;;;;;;;7.10;2.53;;;8.50;99.90;;;;;;4998961;28;20229;-88
2021/10/14 07:34:56;;;;;;;4.87;2.40;;;8.60;99.90;;;;;;5000112;28;20260;-89
2021/10/14 07:37:27;;;;;;;6.70;2.33;;;8.60;99.90;;;;;;4998969;28;20210;-88
2021/10/14 07:39:59;;;;;;;6.57;2.80;;;8.50;99.90;;;;;;4998708;28;20245;-88
2021/10/14 07:42:37;;;;;;;4.87;2.00;;;8.60;99.90;;;;;;4998798;28;20213;-87
2021/10/14 07:45:08;;;;;;;7.67;3.17;;;8.60;99.90;;;;;;4997874;28;20630;-88
2021/10/14 07:47:40;;;;;;;6.53;2.20;;;8.50;99.90;;;;;;4999054;28;20210;-88
2021/10/14 07:50:12;;;;;;;7.30;2.27;;;8.50;99.90;;;;;;5006895;28;20214;-88
2021/10/14 07:52:43;;;;;;;7.50;1.93;;;8.50;99.90;;;;;;5017881;28;20271;-87
2021/10/14 07:55:14;;;;;;;8.10;2.00;;;8.50;99.90;;;;;;5000446;28;20214;-88
2021/10/14 07:57:47;;;;;;;4.67;2.27;;;8.50;99.90;;;;;;5017901;28;20244;-88
2021/10/14 08:00:19;;;;;;;6.50;2.00;;;8.50;99.90;;;;;;5002371;28;20290;-89
2021/10/14 08:02:57;;;;;;;7.83;2.10;;;8.50;99.90;;;;;;5001753;28;20292;-88
2021/10/14 08:05:28;;;;;;;7.53;1.90;;;8.50;99.90;;;;;;5017157;28;20292;-88
2021/10/14 08:08:00;;;;;;;6.43;2.07;;;8.50;99.90;;;;;;5017252;28;20665;-89
2021/10/14 08:10:32;;;;;;;4.50;2.00;;;8.50;99.90;;;;;;5017304;28;20843;-89
2021/10/14 08:13:05;;;;;;;5.03;1.77;;;8.60;99.90;;;;;;5017811;28;20400;-89
2021/10/14 08:15:36;;;;;;;4.93;1.77;;;8.50;99.90;;;;;;5022854;28;20658;-89
2021/10/14 08:18:11;;;;;;;4.33;1.70;;;8.60;99.90;;;;;;5024574;28;20214;-89
2021/10/14 08:20:43;;;;;;;4.43;1.90;;;8.60;99.90;;;;;;5012909;28;20275;-89
2021/10/14 08:23:16;;;;;;;5.53;2.03;;;8.50;99.90;;;;;;4997364;28;20213;-89
2021/10/14 08:25:48;;;;;;;5.67;1.80;;;8.50;99.90;;;;;;4999757;28;20284;-89
2021/10/14 08:28:23;;;;;;;5.00;1.83;;;8.50;99.90;;;;;;4998161;28;20237;-89
2021/10/14 08:30:54;;;;;;;4.77;1.90;;;8.50;99.90;;;;;;4997843;28;20233;-88
2021/10/14 08:33:25;;;;;;;8.80;1.97;;;8.50;99.90;;;;;;4997735;28;20229;-88
2021/10/14 08:35:57;;;;;;;4.90;1.63;;;8.60;99.90;;;;;;4997292;28;20237;-88
2021/10/14 08:38:28;;;;;;;4.90;1.83;;;8.60;99.90;;;;;;4997616;28;20214;-88
2021/10/14 08:41:01;;;;;;;4.57;1.90;;;8.60;99.90;;;;;;4997528;28;20230;-88
2021/10/14 08:43:36;;;;;;;3.63;1.60;;;8.60;99.90;;;;;;4997287;28;20248;-89
2021/10/14 08:46:07;;;;;;;5.80;2.23;;;8.70;99.90;;;;;;5002585;28;20209;-88
2021/10/14 08:48:38;;;;;;;4.93;1.97;;;8.60;99.90;;;;;;4997210;28;20245;-88
2021/10/14 08:51:09;;;;;;;5.07;2.13;;;8.60;99.90;;;;;;5013962;28;20300;-88
2021/10/14 08:53:41;;;;;;;3.80;1.73;;;8.60;99.90;;;;;;5017054;28;20217;-88
2021/10/14 08:56:13;;;;;;;5.13;1.90;;;8.60;99.90;;;;;;5003740;28;20213;-88
2021/10/14 08:58:48;;;;;;;7.37;1.87;;;8.50;99.90;;;;;;4984726;28;20218;-88
2021/10/14 09:01:19;;;;;;;6.50;2.10;;;8.60;99.90;;;;;;4996597;28;20769;-89
2021/10/14 09:03:53;;;;;;;8.67;2.10;;;8.50;99.90;;;;;;4997841;28;20694;-89
2021/10/14 09:06:24;;;;;;;8.87;2.20;;;8.50;99.90;;;;;;4995984;28;20277;-89
2021/10/14 09:08:56;;;;;;;4.50;2.23;;;8.50;99.90;;;;;;4995461;28;20255;-88
2021/10/14 09:11:29;;;;;;;5.27;2.43;;;8.50;99.90;;;;;;4977368;28;20218;-89
2021/10/14 09:14:04;;;;;;;4.23;2.03;;;8.60;99.90;;;;;;4977657;28;20252;-88
2021/10/14 09:16:37;;;;;;;4.43;1.80;;;8.50;99.90;;;;;;4976671;28;20205;-89
2021/10/14 09:19:16;;;;;;;6.20;2.40;;;8.50;99.90;;;;;;4977791;28;20206;-89
2021/10/14 09:21:50;;;;;;;6.10;2.40;;;8.50;99.90;;;;;;4977865;28;20260;-88
2021/10/14 09:24:35;;;;;;;4.90;1.87;;;8.50;99.90;;;;;;4977811;28;20267;-89
2021/10/14 09:27:08;;;;;;;5.00;2.17;;;8.50;99.90;;;;;;4977576;28;20246;-89
2021/10/14 09:29:43;;;;;;;3.40;1.83;;;8.50;99.90;;;;;;4977988;28;20210;-87
2021/10/14 09:32:18;;;;;;;7.00;2.00;;;8.40;99.90;;;;;;4993461;28;20206;-88
2021/10/14 09:34:51;;;;;;;5.80;2.17;;;8.50;99.90;;;;;;4999226;28;20201;-89
2021/10/14 09:37:32;;;;;;;3.70;2.13;;;8.50;99.90;;;;;;4996223;28;20218;-88
2021/10/14 09:40:05;;;;;;;6.63;2.40;;;8.40;99.90;;;;;;4982517;28;20241;-87
2021/10/14 09:42:53;;;;;;;6.30;2.40;;;8.40;99.90;;;;;;4982655;28;20214;-88
2021/10/14 09:45:28;;;;;;;5.30;2.00;;;8.50;99.90;;;;;;4980043;28;20226;-88
2021/10/14 09:48:11;;;;;;;7.80;2.20;;;8.50;99.90;;;;;;4981441;28;20230;-89
2021/10/14 09:50:44;;;;;;;3.97;2.10;;;8.40;99.90;;;;;;4990539;28;20303;-88
2021/10/14 09:53:19;;;;;;;4.47;1.57;;;8.40;99.90;;;;;;5020097;28;20711;-88
2021/10/14 09:55:50;;;;;;;4.27;1.80;;;8.40;99.90;;;;;;5019401;28;20238;-88
2021/10/14 09:58:22;;;;;;;9.10;2.13;;;8.50;99.90;;;;;;5019870;28;20243;-87
2021/10/14 10:00:56;;;;;;;4.50;2.10;;;8.40;99.90;;;;;;5020144;28;20237;-88
2021/10/14 10:03:28;;;;;;;3.13;1.77;;;8.50;99.90;;;;;;5020280;28;20221;-88
2021/10/14 10:06:01;;;;;;;5.37;1.87;;;8.50;99.90;;;;;;5018901;28;20217;-89
2021/10/14 10:08:34;;;;;;;6.63;2.20;;;8.50;99.90;;;;;;5020072;28;20292;-89
2021/10/14 10:11:08;;;;;;;3.63;1.60;;;8.50;99.90;;;;;;5019717;28;20212;-89
2021/10/14 10:13:45;;;;;;;4.87;2.37;;;8.50;99.90;;;;;;5020014;28;20233;-89
2021/10/14 10:16:21;;;;;;;3.03;1.70;;;8.40;99.90;;;;;;5018913;28;20215;-89
2021/10/14 10:18:53;;;;;;;6.17;1.90;;;8.40;99.90;;;;;;5019736;28;20201;-89
2021/10/14 10:21:45;;;;;;;2.53;1.50;;;8.50;99.90;;;;;;5000657;28;20276;-89
2021/10/14 10:24:31;;;;;;;3.10;1.70;;;8.50;99.90;;;;;;4982878;28;20205;-88
2021/10/14 10:27:04;;;;;;;6.13;1.93;;;8.50;99.90;;;;;;4999079;28;20264;-89
2021/10/14 10:29:54;;;;;;;3.73;1.30;;;8.50;99.90;;;;;;4999831;28;20745;-88
2021/10/14 10:32:29;;;;;;;6.03;1.70;;;8.50;99.90;;;;;;5001957;28;20224;-88
2021/10/14 10:35:08;;;;;;;3.10;1.60;;;8.50;99.90;;;;;;4982653;28;20215;-87
2021/10/14 10:37:57;;;;;;;3.67;1.70;;;8.50;99.90;;;;;;4991757;28;20211;-88
2021/10/14 10:40:33;;;;;;;4.23;2.10;;;8.50;99.90;;;;;;4980207;28;20777;-88
2021/10/14 10:43:08;;;;;;;5.77;1.70;;;8.40;99.90;;;;;;4979177;28;20301;-88
2021/10/14 10:45:49;;;;;;;5.63;1.60;;;8.40;99.90;;;;;;4988529;28;20253;-88
2021/10/14 10:48:35;;;;;;;5.07;1.77;;;8.40;99.90;;;;;;4999555;28;20226;-88
2021/10/14 10:51:07;;;;;;;3.87;1.70;;;8.40;99.90;;;;;;4998757;28;20568;-88
2021/10/14 10:53:41;;;;;;;4.87;1.63;;;8.40;99.90;;;;;;4999145;28;20225;-88
2021/10/14 10:56:30;;;;;;;3.03;1.80;;;8.40;99.90;;;;;;4998622;28;20209;-87
2021/10/14 10:59:02;;;;;;;5.90;1.80;;;8.40;99.90;;;;;;4981908;28;20297;-88
2021/10/14 11:01:34;;;;;;;2.63;1.37;;;8.40;99.90;;;;;;4998915;28;20230;-89
2021/10/14 11:04:08;;;;;;;3.47;1.40;;;8.50;99.90;;;;;;4999462;28;20701;-89
2021/10/14 11:06:40;;;;;;;4.17;1.63;;;8.50;99.90;;;;;;4998761;28;20309;-89
2021/10/14 11:09:15;;;;;;;3.63;1.53;;;8.50;99.90;;;;;;4998315;28;20233;-87
2021/10/14 11:11:48;;;;;;;4.47;1.30;;;8.40;99.90;;;;;;4999381;28;20288;-89
2021/10/14 11:14:20;;;;;;;2.57;1.30;;;8.40;99.90;;;;;;4998791;28;20214;-88
2021/10/14 11:16:51;;;;;;;2.57;1.30;;;8.40;99.90;;;;;;4997811;28;20212;-88
2021/10/14 11:19:24;;;;;;;3.33;1.40;;;8.40;99.90;;;;;;4997883;28;20277;-89
2021/10/14 11:21:55;;;;;;;2.67;1.20;;;8.40;99.90;;;;;;4996894;28;20230;-89
2021/10/14 11:24:27;;;;;;;5.00;1.50;;;8.40;99.90;;;;;;4981220;28;20218;-89
2021/10/14 11:26:58;;;;;;;4.10;1.57;;;8.40;99.90;;;;;;4997927;28;20248;-88
2021/10/14 11:29:30;;;;;;;4.20;1.30;;;8.30;99.90;;;;;;4999453;28;20222;-88
2021/10/14 11:32:06;;;;;;;3.57;1.50;;;8.30;99.90;;;;;;4999529;28;20264;-88
2021/10/14 11:34:40;;;;;;;4.17;1.27;;;8.20;99.90;;;;;;4998700;28;20211;-87
2021/10/14 11:37:13;;;;;;;2.70;1.00;;;8.20;99.90;;;;;;4998774;28;20202;-88
2021/10/14 11:39:47;;;;;;;3.20;1.20;;;8.20;99.90;;;;;;5003067;28;20214;-87
2021/10/14 11:42:19;;;;;;;2.00;1.03;;;8.20;99.90;;;;;;5018417;28;20237;-88
2021/10/14 11:44:53;;;;;;;4.50;1.30;;;8.20;99.90;;;;;;5018627;28;20197;-93
2021/10/14 11:47:25;;;;;;;4.10;1.20;;;8.20;99.90;;;;;;5017639;28;20200;-88
2021/10/14 11:50:05;;;;;;;3.00;1.17;;;8.20;99.90;;;;;;5013207;28;20228;-88
2021/10/14 11:52:37;;;;;;;2.93;1.27;;;8.10;99.90;;;;;;5019092;28;20213;-88
2021/10/14 11:55:10;;;;;;;1.50;0.80;;;8.20;99.90;;;;;;5018735;28;20205;-88
2021/10/14 11:57:41;;;;;;;1.97;0.90;;;8.20;99.90;;;;;;5018942;28;20208;-88
2021/10/14 12:00:13;;;;;;;5.80;1.33;;;8.20;99.90;;;;;;5028943;28;20214;-87
2021/10/14 12:02:44;;;;;;;1.70;1.30;;;8.10;99.90;;;;;;5029378;28;20261;-89
2021/10/14 12:05:20;;;;;;;2.47;1.10;;;8.10;99.90;;;;;;5074557;23;20241;-89
2021/10/14 12:07:56;;;;;;;5.93;1.47;;;8.10;99.90;;;;;;5015819;28;20217;-89
2021/10/14 12:10:39;;;;;;;3.13;1.10;;;8.10;99.90;;;;;;5018123;28;20210;-88
2021/10/14 12:13:11;;;;;;;3.23;0.80;;;8.10;99.90;;;;;;5016891;28;20210;-89
2021/10/14 12:15:43;;;;;;;3.80;1.23;;;8.10;99.90;;;;;;4983730;28;20200;-89
2021/10/14 12:18:31;;;;;;;1.67;1.00;;;8.10;99.90;;;;;;5014936;28;20212;-89
2021/10/14 12:21:26;;;;;;;2.43;1.30;;;8.10;99.90;;;;;;4997507;28;20214;-88
2021/10/14 12:24:10;;;;;;;3.70;1.00;;;8.20;99.90;;;;;;5006476;28;20221;-88
2021/10/14 12:26:43;;;;;;;3.43;1.00;;;8.20;99.90;;;;;;5005179;28;20205;-89
2021/10/14 12:29:35;;;;;;;3.23;1.00;;;8.10;99.90;;;;;;5003404;28;20245;-87
2021/10/14 12:32:11;;;;;;;4.37;1.00;;;8.10;99.90;;;;;;5007702;28;20216;-88
2021/10/14 12:34:48;;;;;;;3.00;1.10;;;8.10;99.90;;;;;;5006091;28;20279;-87
2021/10/14 12:37:27;;;;;;;2.50;1.20;;;8.10;99.90;;;;;;4999184;28;20694;-88
2021/10/14 12:40:21;;;;;;;1.30;0.80;;;8.00;99.90;;;;;;5000212;28;20626;-88
2021/10/14 12:48:39;;;;;;;1.13;0.80;;;8.00;99.90;;;;;;4996791;28;20208;-88
2021/10/14 12:51:18;;;;;;;2.37;1.23;;;8.00;99.90;;;;;;4988380;28;20216;-88
2021/10/14 12:53:57;;;;;;;1.23;0.90;;;8.00;99.90;;;;;;5012064;28;20216;-88
2021/10/14 12:56:38;;;;;;;2.30;1.00;;;8.00;99.90;;;;;;5017094;28;20201;-88
2021/10/14 12:59:13;;;;;;;1.53;0.80;;;8.00;99.90;;;;;;5035330;28;20196;-89
2021/10/14 13:01:47;;;;;;;1.93;1.00;;;8.00;99.90;;;;;;5036828;28;20236;-89
2021/10/14 13:04:21;;;;;;;2.60;1.10;;;8.00;99.90;;;;;;5033629;28;20216;-88
2021/10/14 13:06:53;;;;;;;5.57;1.03;;;8.00;99.90;;;;;;5015672;28;20231;-89
2021/10/14 13:09:28;;;;;;;1.17;1.07;;;8.10;99.90;;;;;;5032916;28;20207;-88
2021/10/14 13:11:59;;;;;;;1.97;0.90;;;8.00;99.90;;;;;;5022747;28;20574;-89
2021/10/14 13:14:37;;;;;;;1.30;0.70;;;8.00;99.90;;;;;;5020408;28;20213;-89
2021/10/14 13:17:09;;;;;;;1.17;0.83;;;8.00;99.90;;;;;;5019016;28;20265;-89
2021/10/14 13:19:41;;;;;;;2.73;0.70;;;7.90;99.90;;;;;;5014173;28;20716;-89
2021/10/14 13:22:13;;;;;;;1.67;0.87;;;8.00;99.90;;;;;;4998257;28;20257;-88
2021/10/14 13:24:46;;;;;;;1.33;0.90;;;8.00;99.90;;;;;;5000066;28;20623;-90
2021/10/14 13:27:18;;;;;;;2.00;0.83;;;8.00;99.90;;;;;;4998364;28;20266;-89
2021/10/14 13:29:49;;;;;;;1.20;0.97;;;8.00;99.90;;;;;;4998425;28;20702;-89
2021/10/14 13:32:20;;;;;;;2.07;0.90;;;8.00;99.90;;;;;;4998894;28;20243;-88
2021/10/14 13:34:54;;;;;;;1.80;0.80;;;8.10;99.90;;;;;;4998167;28;20282;-89
2021/10/14 13:37:26;;;;;;;0.83;0.80;;;8.00;99.90;;;;;;4998348;28;20720;-88
2021/10/14 13:40:00;;;;;;;1.83;0.80;;;8.00;99.90;;;;;;4999080;28;20217;-88
2021/10/14 13:42:33;;;;;;;1.20;0.80;;;8.00;99.90;;;;;;4997860;28;20241;-88
2021/10/14 13:45:06;;;;;;;2.23;0.90;;;8.00;99.90;;;;;;4998774;28;20562;-88
2021/10/14 13:47:37;;;;;;;1.10;0.90;;;8.00;99.90;;;;;;4998997;28;20208;-88
2021/10/14 13:50:09;;;;;;;1.27;1.07;;;8.00;99.90;;;;;;4999843;28;20571;-88
2021/10/14 13:52:43;;;;;;;2.07;0.73;;;8.00;99.90;;;;;;5014619;28;20278;-88
2021/10/14 13:55:19;;;;;;;1.20;0.70;;;8.00;99.90;;;;;;5014250;28;20324;-88
2021/10/14 13:57:51;;;;;;;1.90;1.10;;;8.00;99.90;;;;;;4993169;28;20286;-88
2021/10/14 14:00:23;;;;;;;2.80;0.83;;;8.10;99.90;;;;;;5006578;28;20701;-88
2021/10/14 14:02:54;;;;;;;2.27;0.90;;;8.10;99.90;;;;;;5002444;28;20234;-88
2021/10/14 14:05:26;;;;;;;2.20;0.90;;;8.00;99.90;;;;;;4997302;28;20221;-88
2021/10/14 14:07:57;;;;;;;1.10;0.97;;;8.10;99.90;;;;;;4997461;28;20269;-88
2021/10/14 14:10:31;;;;;;;0.73;0.67;;;8.10;99.90;;;;;;4997695;28;20213;-87
2021/10/14 14:13:03;;;;;;;1.40;0.90;;;8.10;99.90;;;;;;4996781;28;20598;-88
2021/10/14 14:15:34;;;;;;;0.87;0.63;;;8.00;99.90;;;;;;4995850;28;20626;-89